createdAt,value
2023-05-19T00:02:05.913Z,10.57
2023-05-19T00:04:33.585Z,7.25
2023-05-19T00:07:00.993Z,7.28
2023-05-19T00:09:27.541Z,7.70
2023-05-19T00:11:53.984Z,10.10
2023-05-19T00:14:20.545Z,12.40
2023-05-19T00:16:47.536Z,5.55
2023-05-19T00:19:13.947Z,10.02
2023-05-19T00:21:40.521Z,5.55
2023-05-19T00:24:07.211Z,9.55
2023-05-19T00:26:33.880Z,10.23
2023-05-19T00:29:00.325Z,5.80
2023-05-19T00:31:26.806Z,12.75
2023-05-19T00:33:53.381Z,10.40
2023-05-19T00:36:19.842Z,14.30
2023-05-19T00:38:46.214Z,7.18
2023-05-19T00:41:12.628Z,8.60
2023-05-19T00:43:38.983Z,9.88
2023-05-19T00:46:05.500Z,8.13
2023-05-19T00:48:31.844Z,11.25
2023-05-19T00:51:04.012Z,7.88
2023-05-19T00:53:31.862Z,14.32
2023-05-19T00:55:58.998Z,5.40
2023-05-19T00:58:29.201Z,8.57
2023-05-19T01:01:03.692Z,9.25
2023-05-19T01:03:31.674Z,5.40
2023-05-19T01:06:01.635Z,8.90
2023-05-19T01:08:28.966Z,9.80
2023-05-19T01:10:55.364Z,8.88
2023-05-19T01:13:21.720Z,8.88
2023-05-19T01:15:57.913Z,6.30
2023-05-19T01:18:30.664Z,7.32
2023-05-19T01:21:25.898Z,7.68
2023-05-19T01:23:57.136Z,7.18
2023-05-19T01:26:40.092Z,6.68
2023-05-19T01:29:21.488Z,7.93
2023-05-19T01:31:50.391Z,9.13
2023-05-19T01:34:16.798Z,7.25
2023-05-19T01:36:44.943Z,8.43
2023-05-19T01:39:11.874Z,5.00
2023-05-19T01:41:38.542Z,7.35
2023-05-19T01:44:05.136Z,6.90
2023-05-19T01:46:31.586Z,6.40
2023-05-19T01:48:58.248Z,6.43
2023-05-19T01:51:24.625Z,8.68
2023-05-19T01:53:51.328Z,7.13
2023-05-19T01:56:22.415Z,10.50
2023-05-19T01:58:52.940Z,8.90
2023-05-19T02:01:40.494Z,6.93
2023-05-19T02:04:45.786Z,10.52
2023-05-19T02:07:21.161Z,12.35
2023-05-19T02:12:28.353Z,6.95
2023-05-19T02:14:54.661Z,7.57
2023-05-19T02:17:23.270Z,6.80
2023-05-19T02:19:49.690Z,8.50
2023-05-19T02:22:16.048Z,10.02
2023-05-19T02:24:44.362Z,10.55
2023-05-19T02:27:10.700Z,10.00
2023-05-19T02:29:37.034Z,8.00
2023-05-19T02:32:03.487Z,7.78
2023-05-19T02:34:29.852Z,10.75
2023-05-19T02:36:56.558Z,9.30
2023-05-19T02:39:22.996Z,11.25
2023-05-19T02:41:49.353Z,10.52
2023-05-19T02:44:15.944Z,9.65
2023-05-19T02:46:42.520Z,6.37
2023-05-19T02:49:09.235Z,7.95
2023-05-19T02:51:35.571Z,6.17
2023-05-19T02:54:01.907Z,9.57
2023-05-19T02:56:28.245Z,9.95
2023-05-19T02:58:54.611Z,3.92
2023-05-19T03:01:22.957Z,4.68
2023-05-19T03:03:49.493Z,3.90
2023-05-19T03:06:17.985Z,4.53
2023-05-19T03:08:44.907Z,3.45
2023-05-19T03:11:11.252Z,4.43
2023-05-19T03:13:37.612Z,8.43
2023-05-19T03:16:04.234Z,9.15
2023-05-19T03:18:30.714Z,5.35
2023-05-19T03:20:57.108Z,4.68
2023-05-19T03:23:23.468Z,3.63
2023-05-19T03:25:49.862Z,3.75
2023-05-19T03:28:17.172Z,4.70
2023-05-19T03:30:43.555Z,7.15
2023-05-19T03:33:09.969Z,4.28
2023-05-19T03:35:36.440Z,4.70
2023-05-19T03:38:02.804Z,4.57
2023-05-19T03:40:29.214Z,4.83
2023-05-19T03:42:55.552Z,4.53
2023-05-19T03:45:21.893Z,3.87
2023-05-19T03:47:48.266Z,4.38
2023-05-19T03:50:14.642Z,4.80
2023-05-19T03:52:46.596Z,6.93
2023-05-19T03:55:14.721Z,7.20
2023-05-19T03:57:44.377Z,4.65
2023-05-19T04:00:13.954Z,10.65
2023-05-19T04:02:41.089Z,3.28
2023-05-19T04:05:08.550Z,2.95
2023-05-19T04:07:34.900Z,2.00
2023-05-19T04:10:02.283Z,2.85
2023-05-19T04:12:28.623Z,3.50
2023-05-19T04:14:54.973Z,1.73
2023-05-19T04:17:23.613Z,3.00
2023-05-19T04:19:49.993Z,3.80
2023-05-19T04:22:16.406Z,2.80
2023-05-19T04:24:42.776Z,5.20
2023-05-19T04:27:11.901Z,2.90
2023-05-19T04:29:39.102Z,10.93
2023-05-19T04:32:07.902Z,4.13
2023-05-19T04:34:35.222Z,3.33
2023-05-19T04:37:02.142Z,3.63
2023-05-19T04:39:28.486Z,3.00
2023-05-19T04:41:54.831Z,3.15
2023-05-19T04:44:21.251Z,3.10
2023-05-19T04:46:47.655Z,2.93
2023-05-19T04:49:14.484Z,3.23
2023-05-19T04:51:46.086Z,3.10
2023-05-19T04:54:12.455Z,5.70
2023-05-19T04:56:38.946Z,3.67
2023-05-19T04:59:05.563Z,4.93
2023-05-19T05:01:32.995Z,3.28
2023-05-19T05:03:59.501Z,3.78
2023-05-19T05:06:26.520Z,3.22
2023-05-19T05:08:52.975Z,2.55
2023-05-19T05:11:19.416Z,3.97
2023-05-19T05:13:46.063Z,10.98
2023-05-19T05:16:12.877Z,14.38
2023-05-19T05:18:39.671Z,8.98
2023-05-19T05:21:07.076Z,16.40
2023-05-19T05:23:33.590Z,13.60
2023-05-19T05:26:00.092Z,14.38
2023-05-19T05:28:26.568Z,27.17
2023-05-19T05:30:52.937Z,6.82
2023-05-19T05:33:19.559Z,12.60
2023-05-19T05:35:46.645Z,12.32
2023-05-19T05:38:13.000Z,13.05
2023-05-19T05:40:39.333Z,11.80
2023-05-19T05:43:05.661Z,22.67
2023-05-19T05:45:32.165Z,12.50
2023-05-19T05:47:58.846Z,16.58
2023-05-19T05:50:25.382Z,19.90
2023-05-19T05:52:53.536Z,9.23
2023-05-19T05:55:20.127Z,21.33
2023-05-19T05:57:48.683Z,18.17
2023-05-19T06:00:18.245Z,14.63
2023-05-19T06:02:50.584Z,13.38
2023-05-19T06:05:17.300Z,13.27
2023-05-19T06:07:43.769Z,13.57
2023-05-19T06:10:10.278Z,20.25
2023-05-19T06:12:40.050Z,13.07
2023-05-19T06:15:08.006Z,12.88
2023-05-19T06:17:35.865Z,14.00
2023-05-19T06:20:02.558Z,15.90
2023-05-19T06:22:28.912Z,13.18
2023-05-19T06:24:55.242Z,16.58
2023-05-19T06:27:21.579Z,11.68
2023-05-19T06:29:47.912Z,9.05
2023-05-19T06:32:14.230Z,10.38
2023-05-19T06:34:40.698Z,9.52
2023-05-19T06:37:07.044Z,8.57
2023-05-19T06:39:33.401Z,8.90
2023-05-19T06:41:59.770Z,9.80
2023-05-19T06:44:26.185Z,7.47
2023-05-19T06:46:52.541Z,10.70
2023-05-19T06:49:18.892Z,7.18
2023-05-19T06:51:45.339Z,7.20
2023-05-19T06:54:12.954Z,10.60
2023-05-19T06:56:39.350Z,6.97
2023-05-19T06:59:05.767Z,10.77
2023-05-19T07:01:32.191Z,7.95
2023-05-19T07:03:58.709Z,6.97
2023-05-19T07:06:25.166Z,8.13
2023-05-19T07:08:51.547Z,12.00
2023-05-19T07:11:18.392Z,7.13
2023-05-19T07:13:44.719Z,9.35
2023-05-19T07:16:11.191Z,8.98
2023-05-19T07:18:37.714Z,14.43
2023-05-19T07:21:04.079Z,5.65
2023-05-19T07:23:30.466Z,13.93
2023-05-19T07:25:56.963Z,10.13
2023-05-19T07:28:23.491Z,15.25
2023-05-19T07:30:49.966Z,7.95
2023-05-19T07:33:16.434Z,10.27
2023-05-19T07:35:42.920Z,6.43
2023-05-19T07:38:09.262Z,7.35
2023-05-19T07:40:35.602Z,13.00
2023-05-19T07:43:01.944Z,8.73
2023-05-19T07:45:28.355Z,12.77
2023-05-19T07:47:54.880Z,7.00
2023-05-19T07:50:21.384Z,9.25
2023-05-19T07:52:47.739Z,15.15
2023-05-19T07:55:14.953Z,9.18
2023-05-19T07:57:41.623Z,8.27
2023-05-19T08:00:10.022Z,9.75
2023-05-19T08:02:36.461Z,8.82
2023-05-19T08:05:03.225Z,7.88
2023-05-19T08:07:29.617Z,9.35
2023-05-19T08:09:55.985Z,8.93
2023-05-19T08:12:22.335Z,6.10
2023-05-19T08:14:48.681Z,8.13
2023-05-19T08:17:15.012Z,9.32
2023-05-19T08:19:41.387Z,6.65
2023-05-19T08:22:07.757Z,5.05
2023-05-19T08:24:34.490Z,12.13
2023-05-19T08:27:00.985Z,11.25
2023-05-19T08:29:27.325Z,8.07
2023-05-19T08:31:53.795Z,10.48
2023-05-19T08:34:20.824Z,8.20
2023-05-19T08:36:47.660Z,10.10
2023-05-19T08:39:16.183Z,8.93
2023-05-19T08:41:42.523Z,7.43
2023-05-19T08:44:08.928Z,8.75
2023-05-19T08:46:35.848Z,7.65
2023-05-19T08:49:04.813Z,6.47
2023-05-19T08:51:39.001Z,5.20
2023-05-19T08:54:15.640Z,9.60
2023-05-19T08:56:45.631Z,10.60
2023-05-19T08:59:13.209Z,6.20
2023-05-19T09:01:40.261Z,8.35
2023-05-19T09:04:06.846Z,10.57
2023-05-19T09:06:33.363Z,9.82
2023-05-19T09:08:59.729Z,7.57
2023-05-19T09:11:27.135Z,7.93
2023-05-19T09:13:54.183Z,11.15
2023-05-19T09:16:20.967Z,3.67
2023-05-19T09:18:56.061Z,5.30
2023-05-19T09:23:49.676Z,8.70
2023-05-19T09:26:16.105Z,8.82
2023-05-19T09:28:43.088Z,4.25
2023-05-19T09:31:09.899Z,8.57
2023-05-19T09:33:41.524Z,8.40
2023-05-19T09:36:10.864Z,8.27
2023-05-19T09:38:38.082Z,7.05
2023-05-19T09:41:05.426Z,11.10
2023-05-19T09:43:33.532Z,7.78
2023-05-19T09:46:12.178Z,8.65
2023-05-19T09:48:40.741Z,4.05
2023-05-19T09:51:10.122Z,12.20
2023-05-19T09:53:36.462Z,5.28
2023-05-19T09:56:04.017Z,4.50
2023-05-19T09:58:37.009Z,3.22
2023-05-19T10:01:04.008Z,6.55
2023-05-19T10:03:31.709Z,8.15
2023-05-19T10:05:59.373Z,5.35
2023-05-19T10:08:27.262Z,4.78
2023-05-19T10:10:53.884Z,8.40
2023-05-19T10:13:21.328Z,7.53
2023-05-19T10:15:58.267Z,8.90
2023-05-19T10:18:26.153Z,4.30
2023-05-19T10:20:52.682Z,5.07
2023-05-19T10:23:19.033Z,10.82
2023-05-19T10:25:46.151Z,7.90
2023-05-19T10:28:14.617Z,16.45
2023-05-19T10:30:41.811Z,8.25
2023-05-19T10:33:10.942Z,6.90
2023-05-19T10:35:43.140Z,5.72
2023-05-19T10:38:23.915Z,7.13
2023-05-19T10:40:53.085Z,5.32
2023-05-19T10:43:33.493Z,9.45
2023-05-19T10:46:00.631Z,5.38
2023-05-19T10:48:27.072Z,7.50
2023-05-19T10:50:54.636Z,9.02
2023-05-19T10:53:23.766Z,6.75
2023-05-19T10:55:59.058Z,7.18
2023-05-19T10:58:43.615Z,5.80
2023-05-19T11:01:10.233Z,5.90
2023-05-19T11:03:46.343Z,4.47
2023-05-19T11:06:28.906Z,7.63
2023-05-19T11:08:56.909Z,8.15
2023-05-19T11:11:23.666Z,3.70
2023-05-19T11:13:56.486Z,4.78
2023-05-19T11:16:30.028Z,5.13
2023-05-19T11:18:58.678Z,6.18
2023-05-19T11:21:40.752Z,5.47
2023-05-19T11:24:09.981Z,4.80
2023-05-19T11:26:45.535Z,8.23
2023-05-19T11:29:12.029Z,4.97
2023-05-19T11:31:39.178Z,6.93
2023-05-19T11:34:07.316Z,6.45
2023-05-19T11:36:34.456Z,6.13
2023-05-19T11:39:01.659Z,9.00
2023-05-19T11:41:28.542Z,10.85
2023-05-19T11:43:54.903Z,6.15
2023-05-19T11:46:21.471Z,7.47
2023-05-19T11:48:48.475Z,7.20
2023-05-19T11:51:14.861Z,8.25
2023-05-19T11:53:41.294Z,7.03
2023-05-19T11:56:07.672Z,7.25
2023-05-19T11:58:34.032Z,6.75
2023-05-19T12:01:03.960Z,9.32
2023-05-19T12:03:33.061Z,13.55
2023-05-19T12:05:59.732Z,7.00
2023-05-19T12:08:27.248Z,2.55
2023-05-19T12:10:54.118Z,7.13
2023-05-19T12:13:22.601Z,6.35
2023-05-19T12:15:50.730Z,9.48
2023-05-19T12:18:17.152Z,8.55
2023-05-19T12:20:43.665Z,5.25
2023-05-19T12:23:10.169Z,4.45
2023-05-19T12:25:38.311Z,11.77
2023-05-19T12:28:05.082Z,8.88
2023-05-19T12:30:32.424Z,5.80
2023-05-19T12:32:59.497Z,10.80
2023-05-19T12:35:26.502Z,8.45
2023-05-19T12:37:52.892Z,8.73
2023-05-19T12:40:19.249Z,7.95
2023-05-19T12:42:45.664Z,10.23
2023-05-19T12:45:12.173Z,13.27
2023-05-19T12:47:38.908Z,9.65
2023-05-19T12:50:05.465Z,8.43
2023-05-19T12:52:35.265Z,13.43
2023-05-19T12:55:02.623Z,15.15
2023-05-19T12:57:32.141Z,6.05
2023-05-19T13:00:11.944Z,12.52
2023-05-19T13:02:55.227Z,6.68
2023-05-19T13:05:21.947Z,5.38
2023-05-19T13:07:58.070Z,7.18
2023-05-19T13:10:26.928Z,8.77
2023-05-19T13:12:54.288Z,14.00
2023-05-19T13:15:22.085Z,8.10
2023-05-19T13:17:48.462Z,5.45
2023-05-19T13:20:15.107Z,14.07
2023-05-19T13:22:42.137Z,6.60
2023-05-19T13:25:08.909Z,8.60
2023-05-19T13:27:35.814Z,6.32
2023-05-19T13:30:02.649Z,8.25
2023-05-19T13:32:28.970Z,7.97
2023-05-19T13:34:55.387Z,7.60
2023-05-19T13:37:21.817Z,7.32
2023-05-19T13:39:48.184Z,8.40
2023-05-19T13:42:14.577Z,7.57
2023-05-19T13:44:40.957Z,8.98
2023-05-19T13:47:07.325Z,5.82
2023-05-19T13:49:33.870Z,7.18
2023-05-19T13:52:00.216Z,3.30
2023-05-19T13:54:27.041Z,5.28
2023-05-19T13:56:53.569Z,3.75
2023-05-19T13:59:21.523Z,7.90
2023-05-19T14:01:48.227Z,7.95
2023-05-19T14:04:16.174Z,16.92
2023-05-19T14:06:42.618Z,15.80
2023-05-19T14:09:09.314Z,9.88
2023-05-19T14:11:35.736Z,19.50
2023-05-19T14:14:03.524Z,10.63
2023-05-19T14:16:30.482Z,7.70
2023-05-19T14:18:56.929Z,11.23
2023-05-19T14:21:23.382Z,12.45
2023-05-19T14:23:49.823Z,10.30
2023-05-19T14:26:16.166Z,11.38
2023-05-19T14:28:42.550Z,13.07
2023-05-19T14:31:12.024Z,11.50
2023-05-19T14:33:38.826Z,11.13
2023-05-19T14:36:06.216Z,3.90
2023-05-19T14:38:32.556Z,3.13
2023-05-19T14:40:58.906Z,3.67
2023-05-19T14:43:25.305Z,6.35
2023-05-19T14:45:51.647Z,3.38
2023-05-19T14:48:18.313Z,3.03
2023-05-19T14:50:44.909Z,3.88
2023-05-19T14:53:11.511Z,5.05
2023-05-19T14:55:37.841Z,3.47
2023-05-19T14:58:10.184Z,5.55
2023-05-19T15:00:47.398Z,8.55
2023-05-19T15:03:13.773Z,5.70
2023-05-19T15:05:40.610Z,3.65
2023-05-19T15:08:06.961Z,5.55
2023-05-19T15:10:33.588Z,6.97
2023-05-19T15:13:01.640Z,4.43
2023-05-19T15:15:28.279Z,4.10
2023-05-19T15:17:54.720Z,7.90
2023-05-19T15:20:21.153Z,3.55
2023-05-19T15:22:47.597Z,5.50
2023-05-19T15:25:13.969Z,4.95
2023-05-19T15:27:40.318Z,2.88
2023-05-19T15:30:06.881Z,3.92
2023-05-19T15:32:33.782Z,3.70
2023-05-19T15:35:00.199Z,3.33
2023-05-19T15:37:26.563Z,6.05
2023-05-19T15:39:53.342Z,6.18
2023-05-19T15:42:19.679Z,4.18
2023-05-19T15:44:46.275Z,2.90
2023-05-19T15:47:12.728Z,4.20
2023-05-19T15:49:39.090Z,4.13
2023-05-19T15:52:05.572Z,5.05
2023-05-19T15:54:31.900Z,9.10
2023-05-19T15:56:58.246Z,5.63
2023-05-19T15:59:24.660Z,5.07
2023-05-19T16:01:53.106Z,5.20
2023-05-19T16:04:19.750Z,7.07
2023-05-19T16:06:46.566Z,3.45
2023-05-19T16:09:12.914Z,5.95
2023-05-19T16:11:39.250Z,4.88
2023-05-19T16:14:05.590Z,2.95
2023-05-19T16:16:31.957Z,4.15
2023-05-19T16:18:58.452Z,9.13
2023-05-19T16:21:24.861Z,2.90
2023-05-19T16:23:51.213Z,3.42
2023-05-19T16:26:17.544Z,3.17
2023-05-19T16:28:43.919Z,5.75
2023-05-19T16:31:10.350Z,8.05
2023-05-19T16:33:36.700Z,8.38
2023-05-19T16:36:03.898Z,13.90
2023-05-19T16:38:30.348Z,9.40
2023-05-19T16:40:56.842Z,8.90
2023-05-19T16:43:23.307Z,9.63
2023-05-19T16:45:49.708Z,10.25
2023-05-19T16:48:16.236Z,9.70
2023-05-19T16:50:42.607Z,6.72
2023-05-19T16:53:08.957Z,16.67
2023-05-19T16:55:35.451Z,17.63
2023-05-19T16:58:01.819Z,17.88
2023-05-19T17:00:29.774Z,21.08
2023-05-19T17:02:56.347Z,16.38
2023-05-19T17:05:22.866Z,16.23
2023-05-19T17:07:49.223Z,19.83
2023-05-19T17:10:15.646Z,18.50
2023-05-19T17:12:42.093Z,22.20
2023-05-19T17:15:08.632Z,26.15
2023-05-19T17:17:35.001Z,18.23
2023-05-19T17:20:01.433Z,20.70
2023-05-19T17:22:29.455Z,21.80
2023-05-19T17:24:57.421Z,20.67
2023-05-19T17:27:23.761Z,15.43
2023-05-19T17:29:50.212Z,17.35
2023-05-19T17:32:16.915Z,16.33
2023-05-19T17:34:43.330Z,29.75
2023-05-19T17:37:09.850Z,27.95
2023-05-19T17:39:36.282Z,23.95
2023-05-19T17:42:02.667Z,19.67
2023-05-19T17:44:29.016Z,22.13
2023-05-19T17:46:55.745Z,26.00
2023-05-19T17:49:23.077Z,20.33
2023-05-19T17:51:49.591Z,21.48
2023-05-19T17:54:16.220Z,21.40
2023-05-19T17:56:44.219Z,3.80
2023-05-19T17:59:10.957Z,5.25
2023-05-19T18:01:37.930Z,3.00
2023-05-19T18:04:05.718Z,1.83
2023-05-19T18:06:32.397Z,1.90
2023-05-19T18:09:00.842Z,2.78
2023-05-19T18:11:27.348Z,1.60
2023-05-19T18:13:54.699Z,3.50
2023-05-19T18:16:21.156Z,2.85
2023-05-19T18:18:50.456Z,3.38
2023-05-19T18:21:17.988Z,2.45
2023-05-19T18:23:44.848Z,2.72
2023-05-19T18:26:13.028Z,1.90
2023-05-19T18:28:39.715Z,2.58
2023-05-19T18:31:06.552Z,2.00
2023-05-19T18:33:33.046Z,3.80
2023-05-19T18:35:59.674Z,2.25
2023-05-19T18:38:26.204Z,2.42
2023-05-19T18:40:53.894Z,12.05
2023-05-19T18:43:20.359Z,8.63
2023-05-19T18:45:46.954Z,2.65
2023-05-19T18:48:13.550Z,4.30
2023-05-19T18:50:40.933Z,4.28
2023-05-19T18:53:07.301Z,2.47
2023-05-19T18:55:33.679Z,2.75
2023-05-19T18:58:00.194Z,2.78
2023-05-19T19:00:27.999Z,2.00
2023-05-19T19:02:54.643Z,7.78
2023-05-19T19:05:21.645Z,2.70
2023-05-19T19:07:48.099Z,2.15
2023-05-19T19:10:15.187Z,2.28
2023-05-19T19:12:41.571Z,3.47
2023-05-19T19:15:08.343Z,1.77
2023-05-19T19:17:34.813Z,3.35
2023-05-19T19:20:01.328Z,1.50
2023-05-19T19:22:27.894Z,1.50
2023-05-19T19:24:54.282Z,5.55
2023-05-19T19:27:22.737Z,1.45
2023-05-19T19:29:50.730Z,3.38
2023-05-19T19:32:17.377Z,2.22
2023-05-19T19:34:43.760Z,4.38
2023-05-19T19:37:10.343Z,4.50
2023-05-19T19:39:39.416Z,2.72
2023-05-19T19:42:05.829Z,2.33
2023-05-19T19:44:32.202Z,4.63
2023-05-19T19:46:58.794Z,30.15
2023-05-19T19:49:25.288Z,8.70
2023-05-19T19:51:51.740Z,10.90
2023-05-19T19:54:18.240Z,8.10
2023-05-19T19:56:44.861Z,8.43
2023-05-19T19:59:11.202Z,8.52
2023-05-19T20:01:37.617Z,8.90
2023-05-19T20:04:04.293Z,8.20
2023-05-19T20:06:32.288Z,8.48
2023-05-19T20:08:59.029Z,8.23
2023-05-19T20:11:26.704Z,11.52
2023-05-19T20:13:53.199Z,8.98
2023-05-19T20:16:19.647Z,8.75
2023-05-19T20:18:46.194Z,11.70
2023-05-19T20:21:12.655Z,7.68
2023-05-19T20:23:40.658Z,9.43
2023-05-19T20:26:12.567Z,12.75
2023-05-19T20:28:39.856Z,13.23
2023-05-19T20:31:06.616Z,14.70
2023-05-19T20:33:33.095Z,11.15
2023-05-19T20:35:59.621Z,14.20
2023-05-19T20:38:26.068Z,12.48
2023-05-19T20:40:53.493Z,10.50
2023-05-19T20:43:19.912Z,8.48
2023-05-19T20:45:46.471Z,10.60
2023-05-19T20:48:12.946Z,8.20
2023-05-19T20:50:39.504Z,12.90
2023-05-19T20:53:07.316Z,8.95
2023-05-19T20:55:36.054Z,8.13
2023-05-19T20:58:02.568Z,8.10
2023-05-19T21:00:30.347Z,7.50
2023-05-19T21:02:57.218Z,8.95
2023-05-19T21:05:23.673Z,9.30
2023-05-19T21:07:50.014Z,7.28
2023-05-19T21:10:17.802Z,8.52
2023-05-19T21:12:44.228Z,4.30
2023-05-19T21:15:10.896Z,2.78
2023-05-19T21:17:37.271Z,1.92
2023-05-19T21:20:03.907Z,6.78
2023-05-19T21:22:30.409Z,4.80
2023-05-19T21:24:57.028Z,5.20
2023-05-19T21:27:23.505Z,2.90
2023-05-19T21:29:54.018Z,1.70
2023-05-19T21:32:20.832Z,2.67
2023-05-19T21:34:47.521Z,2.60
2023-05-19T21:37:13.966Z,1.50
2023-05-19T21:39:40.381Z,1.73
2023-05-19T21:42:06.712Z,4.28
2023-05-19T21:44:33.156Z,2.20
2023-05-19T21:46:59.606Z,1.50
2023-05-19T21:49:26.050Z,4.75
2023-05-19T21:51:52.394Z,2.00
2023-05-19T21:54:18.730Z,2.40
2023-05-19T21:56:45.461Z,1.92
2023-05-19T21:59:12.056Z,2.00
2023-05-19T22:01:38.684Z,1.45
2023-05-19T22:04:05.247Z,3.40
2023-05-19T22:06:31.665Z,2.67
2023-05-19T22:09:01.106Z,1.88
2023-05-19T22:11:27.605Z,1.45
2023-05-19T22:13:56.978Z,2.40
2023-05-19T22:16:23.541Z,2.17
2023-05-19T22:18:49.962Z,2.50
2023-05-19T22:21:16.478Z,7.30
2023-05-19T22:23:43.547Z,2.45
2023-05-19T22:26:09.939Z,1.85
2023-05-19T22:28:36.306Z,2.10
2023-05-19T22:31:02.694Z,2.60
2023-05-19T22:33:29.069Z,3.33
2023-05-19T22:35:55.523Z,1.98
2023-05-19T22:38:21.903Z,2.47
2023-05-19T22:40:49.660Z,1.52
2023-05-19T22:43:16.142Z,1.85
2023-05-19T22:45:42.616Z,2.25
2023-05-19T22:48:09.119Z,2.20
2023-05-19T22:50:35.485Z,2.47
2023-05-19T22:53:01.856Z,2.20
2023-05-19T22:55:28.207Z,1.70
2023-05-19T22:57:54.546Z,1.98
2023-05-19T23:00:21.206Z,1.75
2023-05-19T23:02:47.586Z,1.70
2023-05-19T23:05:13.995Z,2.72
2023-05-19T23:07:40.417Z,1.70
2023-05-19T23:10:07.542Z,1.65
2023-05-19T23:12:34.130Z,1.88
2023-05-19T23:15:00.756Z,5.15
2023-05-19T23:17:27.112Z,4.40
2023-05-19T23:19:53.477Z,2.38
2023-05-19T23:22:19.973Z,4.18
2023-05-19T23:24:46.460Z,2.45
2023-05-19T23:27:12.833Z,3.15
2023-05-19T23:29:39.179Z,2.92
2023-05-19T23:32:05.719Z,1.27
2023-05-19T23:34:32.139Z,2.70
2023-05-19T23:36:58.476Z,2.15
2023-05-19T23:39:25.479Z,2.38
2023-05-19T23:41:51.864Z,3.33
2023-05-19T23:44:18.488Z,10.77
2023-05-19T23:46:44.933Z,2.13
2023-05-19T23:49:11.388Z,6.78
2023-05-19T23:51:37.754Z,2.30
2023-05-19T23:54:04.085Z,3.60
2023-05-19T23:56:30.579Z,3.10
2023-05-19T23:58:56.914Z,1.80
